Maxdale, Texas
Current Conditions -  °F | °C
As of 6:35 AM on Monday 22 Dec 2014 (Local Time) from KILE Reporting Station
Clear Clear  
Wind Chill: 55°   Ceiling: Unl
Heat Index: 55°   Visibility: 10mi
Dew Point: 48°   Wind: 13mph
Humidity: 77%   Direction: 200°SSW
Pressure: 29.64"   Gusts: 22mph
Location:  31.0727°N, 97.7358°W
Report Text: KILE 221235Z AUTO 20011G19KT 10SM CLR 13/09 A2964 RMK AO1
Loading
Personal Weather Stations






























Interactive Weather Map New forecast layout! Learn more

10-Day Weather Forecast

Advertisements
Track Severe Weather on mobile